createdAt,value
2023-05-18T00:02:26.518Z,100037.04
2023-05-18T00:04:54.921Z,100039.03
2023-05-18T00:07:23.013Z,100037.33
2023-05-18T00:09:51.074Z,100037.20
2023-05-18T00:12:19.034Z,100039.15
2023-05-18T00:14:46.912Z,100038.88
2023-05-18T00:17:16.724Z,100042.14
2023-05-18T00:19:46.808Z,100041.75
2023-05-18T00:22:18.748Z,100042.24
2023-05-18T00:24:47.727Z,100044.76
2023-05-18T00:27:15.645Z,100046.17
2023-05-18T00:29:43.611Z,100047.56
2023-05-18T00:32:13.374Z,100053.11
2023-05-18T00:34:41.460Z,100054.42
2023-05-18T00:37:09.352Z,100057.96
2023-05-18T00:39:37.257Z,100059.30
2023-05-18T00:42:05.545Z,100059.23
2023-05-18T00:44:33.795Z,100056.77
2023-05-18T00:47:02.234Z,100054.81
2023-05-18T00:49:30.508Z,100060.14
2023-05-18T00:51:58.474Z,100061.55
2023-05-18T00:54:26.975Z,100060.77
2023-05-18T00:56:54.916Z,100061.00
2023-05-18T00:59:22.874Z,100058.84
2023-05-18T01:01:50.938Z,100055.96
2023-05-18T01:04:21.646Z,100058.16
2023-05-18T01:06:50.093Z,100057.02
2023-05-18T01:09:18.001Z,100055.19
2023-05-18T01:12:21.948Z,100054.50
2023-05-18T01:14:54.508Z,100051.36
2023-05-18T01:18:00.907Z,100052.46
2023-05-18T01:20:29.139Z,100050.52
2023-05-18T01:23:35.680Z,100050.02
2023-05-18T01:26:30.364Z,100054.57
2023-05-18T01:29:01.665Z,100052.89
2023-05-18T01:31:30.207Z,100054.83
2023-05-18T01:33:58.640Z,100055.60
2023-05-18T01:36:27.367Z,100054.71
2023-05-18T01:38:56.670Z,100058.30
2023-05-18T01:41:27.428Z,100060.94
2023-05-18T01:44:15.896Z,100065.18
2023-05-18T01:46:56.061Z,100064.54
2023-05-18T01:49:47.877Z,100068.95
2023-05-18T01:52:30.580Z,100069.17
2023-05-18T01:55:03.583Z,100074.40
2023-05-18T01:57:35.048Z,100075.16
2023-05-18T02:00:07.760Z,100078.25
2023-05-18T02:02:44.080Z,100083.77
2023-05-18T02:05:12.541Z,100089.33
2023-05-18T02:07:43.980Z,100087.83
2023-05-18T02:10:12.504Z,100086.77
2023-05-18T02:12:40.726Z,100088.64
2023-05-18T02:15:11.286Z,100093.91
2023-05-18T02:17:39.436Z,100091.83
2023-05-18T02:20:08.217Z,100094.67
2023-05-18T02:22:36.956Z,100095.70
2023-05-18T02:25:05.737Z,100099.16
2023-05-18T02:27:36.138Z,100100.63
2023-05-18T02:30:05.527Z,100103.80
2023-05-18T02:32:38.675Z,100105.95
2023-05-18T02:35:08.699Z,100108.00
2023-05-18T02:37:40.199Z,100112.27
2023-05-18T02:40:13.017Z,100112.73
2023-05-18T02:42:42.087Z,100116.37
2023-05-18T02:45:10.420Z,100116.00
2023-05-18T02:47:40.006Z,100118.84
2023-05-18T02:50:08.280Z,100119.50
2023-05-18T02:52:37.300Z,100120.55
2023-05-18T02:55:06.327Z,100123.16
2023-05-18T02:57:48.233Z,100127.63
2023-05-18T03:00:19.680Z,100129.29
2023-05-18T03:02:48.507Z,100133.88
2023-05-18T03:05:18.570Z,100134.80
2023-05-18T03:07:51.077Z,100139.59
2023-05-18T03:10:21.548Z,100141.45
2023-05-18T03:12:49.529Z,100143.42
2023-05-18T03:15:17.398Z,100148.61
2023-05-18T03:17:45.449Z,100150.20
2023-05-18T03:20:16.749Z,100152.86
2023-05-18T03:22:44.428Z,100156.68
2023-05-18T03:25:12.339Z,100159.29
2023-05-18T03:27:40.797Z,100162.36
2023-05-18T03:30:09.678Z,100168.53
2023-05-18T03:32:37.578Z,100172.35
2023-05-18T03:35:05.909Z,100177.42
2023-05-18T03:37:33.811Z,100178.97
2023-05-18T03:40:12.095Z,100181.44
2023-05-18T03:42:41.282Z,100182.85
2023-05-18T03:45:11.185Z,100184.16
2023-05-18T03:47:40.715Z,100185.85
2023-05-18T03:50:09.103Z,100193.14
2023-05-18T03:52:37.397Z,100200.55
2023-05-18T03:55:07.702Z,100202.20
2023-05-18T03:57:35.889Z,100203.48
2023-05-18T04:00:11.806Z,100205.08
2023-05-18T04:02:45.262Z,100210.73
2023-05-18T04:05:14.563Z,100210.68
2023-05-18T04:07:46.832Z,100212.50
2023-05-18T04:10:15.113Z,100217.85
2023-05-18T04:12:44.343Z,100220.32
2023-05-18T04:15:14.662Z,100223.29
2023-05-18T04:17:46.046Z,100226.49
2023-05-18T04:20:14.790Z,100228.48
2023-05-18T04:22:46.757Z,100230.63
2023-05-18T04:25:15.985Z,100232.92
2023-05-18T04:27:45.555Z,100237.11
2023-05-18T04:30:13.989Z,100241.31
2023-05-18T04:32:43.813Z,100248.52
2023-05-18T04:35:12.349Z,100251.23
2023-05-18T04:37:40.992Z,100252.48
2023-05-18T04:40:17.147Z,100253.14
2023-05-18T04:42:48.262Z,100252.23
2023-05-18T04:45:26.366Z,100253.39
2023-05-18T04:47:56.615Z,100255.36
2023-05-18T04:50:24.851Z,100260.68
2023-05-18T04:52:53.921Z,100268.15
2023-05-18T04:55:26.476Z,100274.89
2023-05-18T04:57:58.076Z,100278.95
2023-05-18T05:00:29.163Z,100279.12
2023-05-18T05:02:59.182Z,100277.70
2023-05-18T05:05:27.777Z,100280.60
2023-05-18T05:07:56.188Z,100281.33
2023-05-18T05:10:24.155Z,100284.31
2023-05-18T05:12:52.541Z,100289.77
2023-05-18T05:15:21.179Z,100290.48
2023-05-18T05:17:51.301Z,100295.21
2023-05-18T05:20:19.795Z,100293.77
2023-05-18T05:22:48.357Z,100290.62
2023-05-18T05:25:21.517Z,100298.02
2023-05-18T05:27:51.520Z,100304.25
2023-05-18T05:30:21.766Z,100311.91
2023-05-18T05:32:50.051Z,100314.52
2023-05-18T05:35:18.516Z,100319.16
2023-05-18T05:37:47.656Z,100321.16
2023-05-18T05:40:16.975Z,100324.90
2023-05-18T05:42:47.682Z,100329.31
2023-05-18T05:45:15.795Z,100335.75
2023-05-18T05:47:47.388Z,100337.10
2023-05-18T05:50:16.211Z,100340.80
2023-05-18T05:52:47.289Z,100344.35
2023-05-18T05:55:16.065Z,100349.35
2023-05-18T05:57:44.011Z,100349.79
2023-05-18T06:00:13.454Z,100348.85
2023-05-18T06:02:52.061Z,100350.02
2023-05-18T06:05:30.123Z,100353.13
2023-05-18T06:08:00.206Z,100354.17
2023-05-18T06:10:28.140Z,100359.25
2023-05-18T06:12:56.466Z,100362.05
2023-05-18T06:15:30.996Z,100363.56
2023-05-18T06:17:59.456Z,100365.89
2023-05-18T06:20:27.499Z,100365.33
2023-05-18T06:22:56.549Z,100366.65
2023-05-18T06:25:44.345Z,100368.52
2023-05-18T06:28:41.669Z,100368.52
2023-05-18T06:31:35.547Z,100372.66
2023-05-18T06:34:10.396Z,100373.33
2023-05-18T06:36:41.377Z,100375.72
2023-05-18T06:39:11.503Z,100379.20
2023-05-18T06:41:40.290Z,100384.36
2023-05-18T06:44:08.257Z,100387.34
2023-05-18T06:46:39.209Z,100392.30
2023-05-18T06:49:14.044Z,100390.14
2023-05-18T06:51:43.962Z,100390.77
2023-05-18T06:54:12.413Z,100391.23
2023-05-18T06:56:40.519Z,100391.17
2023-05-18T06:59:08.564Z,100394.32
2023-05-18T07:01:36.904Z,100394.12
2023-05-18T07:04:05.174Z,100399.01
2023-05-18T07:06:33.475Z,100403.51
2023-05-18T07:09:03.333Z,100411.02
2023-05-18T07:11:31.248Z,100414.45
2023-05-18T07:13:59.064Z,100418.39
2023-05-18T07:16:28.225Z,100422.11
2023-05-18T07:18:58.771Z,100420.64
2023-05-18T07:21:26.879Z,100425.89
2023-05-18T07:23:54.750Z,100428.36
2023-05-18T07:26:23.132Z,100429.36
2023-05-18T07:28:51.688Z,100429.29
2023-05-18T07:31:21.760Z,100432.70
2023-05-18T07:33:50.162Z,100433.97
2023-05-18T07:36:18.267Z,100435.14
2023-05-18T07:38:46.498Z,100436.21
2023-05-18T07:41:14.433Z,100438.08
2023-05-18T07:43:42.416Z,100437.58
2023-05-18T07:46:10.432Z,100440.70
2023-05-18T07:48:40.590Z,100440.98
2023-05-18T07:51:08.989Z,100441.84
2023-05-18T07:53:38.098Z,100439.66
2023-05-18T07:56:07.590Z,100435.77
2023-05-18T07:58:36.612Z,100429.91
2023-05-18T08:01:04.894Z,100428.30
2023-05-18T08:03:32.931Z,100426.52
2023-05-18T08:06:01.216Z,100430.51
2023-05-18T08:08:30.740Z,100430.60
2023-05-18T08:10:59.427Z,100428.88
2023-05-18T08:13:27.365Z,100431.13
2023-05-18T08:16:09.888Z,100431.98
2023-05-18T08:18:40.169Z,100433.75
2023-05-18T08:21:10.282Z,100434.20
2023-05-18T08:23:39.439Z,100437.58
2023-05-18T08:26:09.552Z,100441.91
2023-05-18T08:28:38.794Z,100443.54
2023-05-18T08:31:07.334Z,100447.14
2023-05-18T08:33:35.843Z,100448.17
2023-05-18T08:36:04.001Z,100450.64
2023-05-18T08:38:32.868Z,100451.05
2023-05-18T08:41:34.812Z,100454.67
2023-05-18T08:44:11.955Z,100456.49
2023-05-18T08:46:42.679Z,100457.76
2023-05-18T08:49:11.073Z,100460.39
2023-05-18T08:51:42.117Z,100457.73
2023-05-18T08:54:16.140Z,100456.95
2023-05-18T08:56:46.313Z,100453.72
2023-05-18T08:59:18.838Z,100457.38
2023-05-18T09:01:47.260Z,100458.14
2023-05-18T09:04:16.638Z,100464.06
2023-05-18T09:06:46.472Z,100465.20
2023-05-18T09:09:16.285Z,100465.61
2023-05-18T09:11:46.520Z,100467.81
2023-05-18T09:14:14.524Z,100467.65
2023-05-18T09:16:42.432Z,100469.95
2023-05-18T09:19:11.216Z,100472.22
2023-05-18T09:21:39.288Z,100475.71
2023-05-18T09:24:07.810Z,100474.21
2023-05-18T09:26:35.768Z,100473.48
2023-05-18T09:29:18.751Z,100471.88
2023-05-18T09:31:48.432Z,100469.73
2023-05-18T09:34:19.046Z,100472.21
2023-05-18T09:36:52.896Z,100469.48
2023-05-18T09:39:20.965Z,100466.71
2023-05-18T09:41:56.941Z,100466.25
2023-05-18T09:44:32.509Z,100464.41
2023-05-18T09:47:01.302Z,100463.63
2023-05-18T09:49:31.092Z,100470.25
2023-05-18T09:52:00.254Z,100475.20
2023-05-18T09:54:28.773Z,100477.95
2023-05-18T09:57:09.539Z,100479.17
2023-05-18T09:59:39.236Z,100480.44
2023-05-18T10:02:09.072Z,100480.64
2023-05-18T10:04:42.944Z,100480.48
2023-05-18T10:07:16.513Z,100473.85
2023-05-18T10:09:46.149Z,100472.94
2023-05-18T10:12:16.362Z,100474.75
2023-05-18T10:14:46.173Z,100472.20
2023-05-18T10:17:17.004Z,100469.70
2023-05-18T10:19:47.005Z,100470.38
2023-05-18T10:22:21.053Z,100467.65
2023-05-18T10:24:52.753Z,100469.73
2023-05-18T10:27:28.227Z,100468.17
2023-05-18T10:29:59.445Z,100468.73
2023-05-18T10:32:31.275Z,100468.67
2023-05-18T10:35:00.882Z,100466.63
2023-05-18T10:37:31.939Z,100464.14
2023-05-18T10:40:01.664Z,100461.30
2023-05-18T10:42:31.175Z,100462.78
2023-05-18T10:45:01.918Z,100460.56
2023-05-18T10:47:32.193Z,100453.84
2023-05-18T10:50:03.251Z,100445.55
2023-05-18T10:52:32.726Z,100437.62
2023-05-18T10:55:01.285Z,100431.93
2023-05-18T10:57:42.455Z,100429.77
2023-05-18T11:00:10.850Z,100423.71
2023-05-18T11:02:42.723Z,100419.99
2023-05-18T11:05:12.514Z,100428.52
2023-05-18T11:07:41.679Z,100441.23
2023-05-18T11:10:11.510Z,100454.45
2023-05-18T11:12:41.181Z,100460.82
2023-05-18T11:15:09.404Z,100467.79
2023-05-18T11:17:37.403Z,100471.19
2023-05-18T11:20:09.011Z,100477.34
2023-05-18T11:22:42.994Z,100478.62
2023-05-18T11:25:36.548Z,100480.18
2023-05-18T11:28:07.084Z,100485.10
2023-05-18T11:30:37.953Z,100489.85
2023-05-18T11:33:21.841Z,100488.23
2023-05-18T11:36:13.918Z,100487.64
2023-05-18T11:38:50.549Z,100481.27
2023-05-18T11:41:47.063Z,100476.66
2023-05-18T11:44:17.413Z,100476.48
2023-05-18T11:47:06.066Z,100473.02
2023-05-18T11:49:46.266Z,100473.45
2023-05-18T11:52:16.569Z,100474.73
2023-05-18T11:54:48.808Z,100478.83
2023-05-18T11:57:22.568Z,100483.02
2023-05-18T11:59:58.206Z,100485.98
2023-05-18T12:02:31.248Z,100484.77
2023-05-18T12:05:05.398Z,100486.71
2023-05-18T12:07:35.575Z,100483.70
2023-05-18T12:10:12.583Z,100483.30
2023-05-18T12:12:41.926Z,100482.73
2023-05-18T12:15:12.012Z,100481.09
2023-05-18T12:17:50.606Z,100480.80
2023-05-18T12:20:21.142Z,100483.05
2023-05-18T12:22:52.733Z,100478.52
2023-05-18T12:25:22.126Z,100479.01
2023-05-18T12:27:51.917Z,100480.81
2023-05-18T12:30:26.133Z,100483.45
2023-05-18T12:32:56.561Z,100483.69
2023-05-18T12:35:26.352Z,100483.30
2023-05-18T12:37:56.151Z,100482.19
2023-05-18T12:40:24.214Z,100485.45
2023-05-18T12:43:05.149Z,100483.40
2023-05-18T12:45:35.029Z,100487.73
2023-05-18T12:48:07.684Z,100486.30
2023-05-18T12:50:37.301Z,100486.39
2023-05-18T12:53:05.437Z,100481.08
2023-05-18T12:55:34.828Z,100477.84
2023-05-18T12:58:19.274Z,100472.49
2023-05-18T13:00:48.641Z,100468.60
2023-05-18T13:03:19.406Z,100472.20
2023-05-18T13:06:09.880Z,100473.48
2023-05-18T13:08:37.820Z,100471.77
2023-05-18T13:11:14.379Z,100475.50
2023-05-18T13:14:06.672Z,100475.66
2023-05-18T13:16:37.767Z,100469.97
2023-05-18T13:19:07.602Z,100470.08
2023-05-18T13:21:36.751Z,100468.42
2023-05-18T13:24:07.491Z,100465.48
2023-05-18T13:26:35.587Z,100470.36
2023-05-18T13:29:03.662Z,100466.35
2023-05-18T13:31:31.729Z,100466.06
2023-05-18T13:33:59.786Z,100471.60
2023-05-18T13:36:29.889Z,100468.75
2023-05-18T13:38:57.979Z,100470.45
2023-05-18T13:41:26.028Z,100470.79
2023-05-18T13:43:54.189Z,100467.08
2023-05-18T13:46:22.257Z,100467.91
2023-05-18T13:48:50.174Z,100472.73
2023-05-18T13:51:18.264Z,100469.25
2023-05-18T13:53:46.167Z,100468.06
2023-05-18T13:56:14.040Z,100475.86
2023-05-18T13:58:43.832Z,100474.85
2023-05-18T14:01:13.739Z,100477.27
2023-05-18T14:03:42.214Z,100473.11
2023-05-18T14:06:10.541Z,100471.13
2023-05-18T14:08:38.670Z,100469.62
2023-05-18T14:11:06.655Z,100471.96
2023-05-18T14:13:34.897Z,100472.00
2023-05-18T14:16:02.686Z,100473.45
2023-05-18T14:18:30.640Z,100474.29
2023-05-18T14:21:02.221Z,100472.46
2023-05-18T14:23:30.462Z,100470.95
2023-05-18T14:25:58.428Z,100472.42
2023-05-18T14:28:26.358Z,100467.48
2023-05-18T14:30:54.231Z,100462.30
2023-05-18T14:33:22.099Z,100464.00
2023-05-18T14:35:50.084Z,100459.62
2023-05-18T14:38:18.316Z,100458.70
2023-05-18T14:40:46.555Z,100456.10
2023-05-18T14:43:14.800Z,100461.11
2023-05-18T14:45:43.611Z,100463.62
2023-05-18T14:48:14.540Z,100463.72
2023-05-18T14:50:42.646Z,100465.04
2023-05-18T14:53:10.553Z,100460.92
2023-05-18T14:55:38.597Z,100462.41
2023-05-18T14:58:07.713Z,100466.93
2023-05-18T15:00:35.720Z,100466.50
2023-05-18T15:03:03.838Z,100455.78
2023-05-18T15:05:32.329Z,100457.54
2023-05-18T15:08:00.453Z,100459.70
2023-05-18T15:10:28.379Z,100459.77
2023-05-18T15:12:56.366Z,100461.80
2023-05-18T15:15:26.472Z,100458.95
2023-05-18T15:17:54.781Z,100458.33
2023-05-18T15:20:24.490Z,100463.73
2023-05-18T15:22:53.352Z,100462.27
2023-05-18T15:25:21.273Z,100460.71
2023-05-18T15:27:49.306Z,100461.70
2023-05-18T15:30:17.123Z,100461.05
2023-05-18T15:32:45.501Z,100463.45
2023-05-18T15:35:16.163Z,100460.08
2023-05-18T15:37:44.606Z,100460.46
2023-05-18T15:40:12.592Z,100462.39
2023-05-18T15:42:40.893Z,100457.17
2023-05-18T15:45:09.664Z,100459.60
2023-05-18T15:47:37.634Z,100464.45
2023-05-18T15:50:07.224Z,100465.66
2023-05-18T15:52:35.116Z,100469.29
2023-05-18T15:55:03.176Z,100474.91
2023-05-18T15:57:31.704Z,100475.27
2023-05-18T15:59:59.767Z,100473.52
2023-05-18T16:02:27.762Z,100470.52
2023-05-18T16:04:58.413Z,100466.16
2023-05-18T16:07:26.544Z,100468.37
2023-05-18T16:09:56.625Z,100475.36
2023-05-18T16:12:24.703Z,100476.40
2023-05-18T16:14:52.635Z,100478.27
2023-05-18T16:17:20.431Z,100483.30
2023-05-18T16:19:48.348Z,100484.83
2023-05-18T16:22:16.378Z,100489.50
2023-05-18T16:24:44.376Z,100490.40
2023-05-18T16:27:12.243Z,100493.95
2023-05-18T16:29:41.552Z,100492.66
2023-05-18T16:32:09.533Z,100491.86
2023-05-18T16:34:37.348Z,100488.25
2023-05-18T16:37:05.640Z,100491.55
2023-05-18T16:39:33.551Z,100496.68
2023-05-18T16:42:01.364Z,100496.83
2023-05-18T16:44:29.307Z,100498.27
2023-05-18T16:46:57.421Z,100502.48
2023-05-18T16:49:27.286Z,100505.51
2023-05-18T16:51:55.332Z,100508.26
2023-05-18T16:54:23.307Z,100503.48
2023-05-18T16:56:52.065Z,100507.60
2023-05-18T16:59:22.710Z,100508.68
2023-05-18T17:01:54.842Z,100507.98
2023-05-18T17:04:25.279Z,100509.98
2023-05-18T17:06:53.578Z,100512.09
2023-05-18T17:09:21.487Z,100516.23
2023-05-18T17:11:49.460Z,100518.51
2023-05-18T17:14:18.553Z,100522.55
2023-05-18T17:16:47.332Z,100524.84
2023-05-18T17:19:15.339Z,100528.88
2023-05-18T17:21:43.612Z,100534.91
2023-05-18T17:24:11.482Z,100535.80
2023-05-18T17:26:39.386Z,100535.77
2023-05-18T17:29:07.308Z,100533.55
2023-05-18T17:31:35.282Z,100529.50
2023-05-18T17:34:03.253Z,100528.31
2023-05-18T17:36:31.116Z,100529.17
2023-05-18T17:38:59.154Z,100531.87
2023-05-18T17:41:27.028Z,100534.01
2023-05-18T17:43:55.097Z,100530.89
2023-05-18T17:46:23.010Z,100525.17
2023-05-18T17:48:50.963Z,100529.59
2023-05-18T17:51:19.210Z,100529.75
2023-05-18T17:53:47.136Z,100531.27
2023-05-18T17:56:15.041Z,100532.03
2023-05-18T17:58:43.032Z,100531.61
2023-05-18T18:01:12.333Z,100532.34
2023-05-18T18:03:40.393Z,100528.61
2023-05-18T18:06:08.427Z,100527.60
2023-05-18T18:08:36.873Z,100532.66
2023-05-18T18:11:09.543Z,100535.60
2023-05-18T18:13:37.700Z,100539.86
2023-05-18T18:16:06.181Z,100544.30
2023-05-18T18:18:39.028Z,100545.33
2023-05-18T18:21:07.356Z,100548.02
2023-05-18T18:23:36.412Z,100547.48
2023-05-18T18:26:05.626Z,100547.31
2023-05-18T18:28:34.254Z,100544.18
2023-05-18T18:31:03.494Z,100541.61
2023-05-18T18:33:32.861Z,100540.48
2023-05-18T18:36:01.152Z,100550.73
2023-05-18T18:38:30.108Z,100561.93
2023-05-18T18:41:01.689Z,100573.70
2023-05-18T18:43:30.024Z,100583.05
2023-05-18T18:45:59.407Z,100580.60
2023-05-18T18:48:27.512Z,100583.77
2023-05-18T18:50:57.489Z,100589.98
2023-05-18T18:53:25.786Z,100592.77
2023-05-18T18:55:54.415Z,100594.86
2023-05-18T18:58:24.316Z,100596.25
2023-05-18T19:00:52.379Z,100597.01
2023-05-18T19:03:21.907Z,100597.69
2023-05-18T19:05:50.426Z,100601.22
2023-05-18T19:08:18.333Z,100604.14
2023-05-18T19:10:46.174Z,100606.09
2023-05-18T19:13:13.989Z,100604.20
2023-05-18T19:15:42.002Z,100605.35
2023-05-18T19:18:09.895Z,100607.16
2023-05-18T19:20:37.835Z,100611.29
2023-05-18T19:23:05.795Z,100610.52
2023-05-18T19:25:35.240Z,100616.54
2023-05-18T19:28:03.060Z,100622.56
2023-05-18T19:30:31.066Z,100624.58
2023-05-18T19:32:58.920Z,100623.82
2023-05-18T19:35:28.244Z,100624.38
2023-05-18T19:37:58.953Z,100622.64
2023-05-18T19:40:27.375Z,100623.68
2023-05-18T19:42:56.184Z,100625.76
2023-05-18T19:45:24.264Z,100630.54
2023-05-18T19:47:52.474Z,100634.40
2023-05-18T19:50:20.824Z,100632.23
2023-05-18T19:52:49.535Z,100631.86
2023-05-18T19:55:17.738Z,100632.46
2023-05-18T19:57:45.782Z,100633.58
2023-05-18T20:00:13.826Z,100629.11
2023-05-18T20:02:41.727Z,100629.11
2023-05-18T20:05:12.841Z,100629.96
2023-05-18T20:07:41.038Z,100634.19
2023-05-18T20:10:09.029Z,100636.58
2023-05-18T20:12:37.173Z,100638.05
2023-05-18T20:15:05.672Z,100642.88
2023-05-18T20:17:37.115Z,100648.06
2023-05-18T20:20:06.249Z,100652.23
2023-05-18T20:22:34.493Z,100650.94
2023-05-18T20:25:05.603Z,100656.23
2023-05-18T20:27:33.610Z,100654.42
2023-05-18T20:30:01.533Z,100651.78
2023-05-18T20:32:29.631Z,100657.92
2023-05-18T20:34:57.524Z,100657.77
2023-05-18T20:37:26.606Z,100657.98
2023-05-18T20:39:57.517Z,100663.83
2023-05-18T20:42:30.271Z,100665.13
2023-05-18T20:45:01.294Z,100668.40
2023-05-18T20:47:31.850Z,100672.80
2023-05-18T20:50:00.110Z,100673.20
2023-05-18T20:52:35.710Z,100675.91
2023-05-18T20:55:03.660Z,100676.67
2023-05-18T20:57:31.571Z,100674.52
2023-05-18T20:59:59.380Z,100672.43
2023-05-18T21:02:27.378Z,100674.17
2023-05-18T21:04:57.905Z,100675.24
2023-05-18T21:07:28.386Z,100675.05
2023-05-18T21:10:11.218Z,100671.63
2023-05-18T21:12:39.089Z,100668.91
2023-05-18T21:15:08.361Z,100667.43
2023-05-18T21:17:36.324Z,100666.52
2023-05-18T21:20:05.066Z,100667.55
2023-05-18T21:22:33.070Z,100669.77
2023-05-18T21:25:01.082Z,100675.94
2023-05-18T21:27:28.986Z,100673.33
2023-05-18T21:29:56.944Z,100671.61
2023-05-18T21:32:25.126Z,100675.60
2023-05-18T21:34:53.157Z,100674.54
2023-05-18T21:37:21.255Z,100668.66
2023-05-18T21:39:49.284Z,100670.69
2023-05-18T21:42:40.470Z,100669.36
2023-05-18T21:45:09.064Z,100670.72
2023-05-18T21:47:37.034Z,100665.61
2023-05-18T21:50:05.519Z,100665.27
2023-05-18T21:52:33.517Z,100663.00
2023-05-18T21:55:01.394Z,100668.02
2023-05-18T21:57:29.394Z,100677.52
2023-05-18T21:59:57.329Z,100675.25
2023-05-18T22:02:25.235Z,100680.14
2023-05-18T22:04:53.663Z,100682.41
2023-05-18T22:07:21.525Z,100686.46
2023-05-18T22:09:51.593Z,100690.02
2023-05-18T22:12:21.980Z,100689.11
2023-05-18T22:14:49.792Z,100686.56
2023-05-18T22:17:18.080Z,100688.38
2023-05-18T22:19:46.439Z,100687.39
2023-05-18T22:22:26.660Z,100690.79
2023-05-18T22:24:58.168Z,100689.22
2023-05-18T22:27:26.130Z,100690.42
2023-05-18T22:29:53.977Z,100690.83
2023-05-18T22:32:21.933Z,100689.46
2023-05-18T22:34:50.092Z,100692.40
2023-05-18T22:37:17.968Z,100699.25
2023-05-18T22:39:45.880Z,100707.12
2023-05-18T22:42:13.876Z,100703.20
2023-05-18T22:44:41.874Z,100702.33
2023-05-18T22:47:10.279Z,100705.62
2023-05-18T22:49:41.130Z,100700.80
2023-05-18T22:52:10.251Z,100693.10
2023-05-18T22:54:38.259Z,100683.80
2023-05-18T22:57:06.149Z,100679.37
2023-05-18T22:59:34.894Z,100678.17
2023-05-18T23:02:04.305Z,100678.27
2023-05-18T23:04:33.881Z,100684.45
2023-05-18T23:07:04.269Z,100693.92
2023-05-18T23:09:32.292Z,100694.63
2023-05-18T23:12:01.327Z,100692.06
2023-05-18T23:14:31.358Z,100685.58
2023-05-18T23:17:02.778Z,100684.47
2023-05-18T23:19:30.756Z,100682.92
2023-05-18T23:21:58.612Z,100683.43
2023-05-18T23:24:26.521Z,100685.97
2023-05-18T23:26:54.454Z,100685.78
2023-05-18T23:29:22.293Z,100686.46
2023-05-18T23:31:50.232Z,100687.30
2023-05-18T23:34:18.754Z,100687.52
2023-05-18T23:36:53.665Z,100688.95
2023-05-18T23:39:22.404Z,100688.69
2023-05-18T23:41:53.997Z,100687.46
2023-05-18T23:44:22.274Z,100685.70
2023-05-18T23:46:50.901Z,100687.15
2023-05-18T23:49:19.762Z,100688.02
2023-05-18T23:51:54.061Z,100683.88
2023-05-18T23:54:22.047Z,100679.93
2023-05-18T23:56:50.472Z,100679.35
2023-05-18T23:59:18.831Z,100679.07
